KRDG

Reading Regional / Carl A Spaatz Field Airport

Reading, Pennsylvania, USA
METAR KRDG 230854Z AUTO 00000KT 10SM FEW070 OVC085 07/06 A3006 RMK AO2 SLP185 T00670056 58016
Observed Flight Rules
Oct-23 @ 08:54 UTC (45 minutes ago) Visual Flight Rules
Visibility Clouds
10 miles
  • Few at 7,000' AGL
  • Overcast at 8,500' AGL
Temperatures Readings
Current 7°C / 45°F
Dewpoint 6°C / 43°F
Humidity 93%
Altimeter 30.06" Hg
Pressure 1018.5 hPa
Elevation 109
METAR KRDG 230854Z AUTO 00000KT 10SM FEW070 OVC085 07/06 A3006 RMK AO2 SLP185 T00670056 58016
Observed Flight Rules
Oct-23 @ 08:54 UTC
(45 minutes ago)
VFR
Clouds
  • Few at 7,000' AGL
  • Overcast at 8,500' AGL
Temperature Dewpoint
7°C / 45°F 6°C / 43°F
Humidity Altimeter Pressure
93% 30.06" Hg 1018.5 hPa